createdAt,value
2023-01-08T00:01:17.400Z,33.72
2023-01-08T00:03:45.206Z,33.35
2023-01-08T00:06:15.283Z,32.63
2023-01-08T00:08:43.149Z,31.52
2023-01-08T00:11:11.999Z,33.92
2023-01-08T00:13:39.207Z,31.20
2023-01-08T00:16:09.214Z,31.85
2023-01-08T00:18:36.265Z,34.92
2023-01-08T00:21:04.132Z,33.80
2023-01-08T00:23:31.039Z,31.00
2023-01-08T00:26:01.725Z,33.08
2023-01-08T00:28:28.861Z,30.45
2023-01-08T00:30:56.034Z,30.30
2023-01-08T00:33:23.064Z,31.33
2023-01-08T00:35:49.978Z,32.80
2023-01-08T00:38:16.970Z,32.63
2023-01-08T00:40:43.981Z,31.48
2023-01-08T00:43:11.107Z,30.48
2023-01-08T00:45:38.321Z,30.77
2023-01-08T00:48:06.266Z,31.77
2023-01-08T00:50:33.125Z,31.70
2023-01-08T00:53:00.929Z,30.73
2023-01-08T00:55:27.825Z,32.45
2023-01-08T00:58:13.817Z,33.35
2023-01-08T01:00:41.604Z,33.35
2023-01-08T01:03:08.506Z,31.90
2023-01-08T01:05:35.634Z,32.70
2023-01-08T01:08:02.507Z,32.03
2023-01-08T01:10:30.588Z,32.03
2023-01-08T01:12:57.422Z,31.77
2023-01-08T01:15:24.387Z,30.58
2023-01-08T01:17:51.333Z,32.50
2023-01-08T01:20:18.277Z,32.28
2023-01-08T01:22:45.209Z,33.03
2023-01-08T01:25:12.224Z,31.85
2023-01-08T01:27:39.428Z,32.20
2023-01-08T01:30:07.328Z,32.35
2023-01-08T01:32:34.574Z,30.33
2023-01-08T01:35:02.045Z,31.05
2023-01-08T01:37:30.234Z,30.35
2023-01-08T01:39:58.157Z,29.25
2023-01-08T01:42:40.270Z,29.50
2023-01-08T01:45:26.388Z,29.77
2023-01-08T01:47:59.526Z,29.45
2023-01-08T01:50:48.888Z,28.55
2023-01-08T01:55:47.884Z,25.60
2023-01-08T01:58:20.784Z,27.65
2023-01-08T02:00:48.173Z,28.02
2023-01-08T02:03:16.444Z,27.10
2023-01-08T02:06:08.362Z,27.45
2023-01-08T02:08:52.179Z,27.00
2023-01-08T02:11:30.495Z,26.48
2023-01-08T02:14:11.781Z,26.55
2023-01-08T02:17:05.339Z,27.23
2023-01-08T02:19:48.662Z,26.17
2023-01-08T02:22:46.407Z,25.48
2023-01-08T02:25:41.027Z,27.05
2023-01-08T02:28:14.121Z,26.35
2023-01-08T02:30:42.188Z,26.48
2023-01-08T02:33:09.090Z,27.30
2023-01-08T02:35:40.579Z,26.35
2023-01-08T02:38:12.861Z,26.73
2023-01-08T02:40:50.508Z,27.95
2023-01-08T02:43:26.231Z,26.88
2023-01-08T02:46:00.489Z,26.50
2023-01-08T02:48:41.952Z,26.52
2023-01-08T02:51:32.922Z,27.92
2023-01-08T02:54:04.720Z,26.80
2023-01-08T02:56:36.758Z,27.52
2023-01-08T02:59:07.484Z,25.98
2023-01-08T03:01:35.395Z,25.90
2023-01-08T03:04:08.050Z,28.42
2023-01-08T03:06:35.418Z,26.50
2023-01-08T03:09:02.374Z,25.48
2023-01-08T03:11:35.057Z,27.83
2023-01-08T03:14:09.658Z,26.73
2023-01-08T03:16:52.377Z,27.10
2023-01-08T03:19:26.795Z,26.55
2023-01-08T03:21:54.652Z,28.08
2023-01-08T03:24:26.963Z,28.98
2023-01-08T03:26:57.631Z,27.75
2023-01-08T03:29:25.946Z,27.70
2023-01-08T03:31:58.776Z,27.30
2023-01-08T03:34:28.198Z,30.00
2023-01-08T03:39:31.713Z,28.45
2023-01-08T03:42:02.717Z,28.88
2023-01-08T03:44:29.687Z,29.17
2023-01-08T03:46:58.410Z,28.88
2023-01-08T03:49:28.591Z,28.23
2023-01-08T03:51:55.825Z,28.67
2023-01-08T03:54:25.643Z,29.13
2023-01-08T03:56:52.516Z,28.48
2023-01-08T03:59:19.547Z,28.63
2023-01-08T04:01:46.533Z,31.38
2023-01-08T04:04:13.713Z,31.83
2023-01-08T04:06:40.973Z,30.98
2023-01-08T04:09:08.273Z,30.13
2023-01-08T04:11:35.166Z,30.02
2023-01-08T04:14:02.278Z,29.02
2023-01-08T04:16:29.131Z,29.45
2023-01-08T04:18:56.254Z,28.77
2023-01-08T04:21:23.140Z,27.60
2023-01-08T04:23:50.203Z,26.65
2023-01-08T04:26:17.023Z,26.73
2023-01-08T04:28:44.037Z,25.20
2023-01-08T04:31:10.904Z,25.38
2023-01-08T04:33:37.952Z,25.15
2023-01-08T04:36:05.629Z,26.40
2023-01-08T04:38:32.528Z,26.85
2023-01-08T04:41:01.387Z,26.90
2023-01-08T04:43:29.380Z,25.23
2023-01-08T04:46:04.497Z,27.10
2023-01-08T04:48:31.582Z,28.40
2023-01-08T04:51:00.277Z,27.00
2023-01-08T04:53:28.429Z,25.90
2023-01-08T04:55:55.527Z,26.00
2023-01-08T04:58:22.396Z,27.10
2023-01-08T05:00:49.351Z,25.95
2023-01-08T05:03:16.234Z,27.15
2023-01-08T05:05:43.143Z,26.73
2023-01-08T05:08:10.005Z,25.95
2023-01-08T05:10:36.872Z,26.10
2023-01-08T05:13:03.849Z,23.00
2023-01-08T05:15:30.754Z,23.33
2023-01-08T05:18:02.452Z,22.98
2023-01-08T05:20:29.711Z,23.92
2023-01-08T05:22:58.497Z,22.58
2023-01-08T05:25:25.888Z,23.75
2023-01-08T05:27:53.335Z,24.08
2023-01-08T05:30:20.259Z,22.27
2023-01-08T05:32:47.379Z,25.90
2023-01-08T05:35:14.287Z,24.48
2023-01-08T05:37:41.472Z,26.08
2023-01-08T05:40:08.982Z,26.40
2023-01-08T05:42:37.019Z,25.48
2023-01-08T05:45:05.110Z,24.80
2023-01-08T05:47:34.018Z,25.00
2023-01-08T05:50:01.320Z,26.42
2023-01-08T05:52:30.217Z,24.90
2023-01-08T05:54:57.122Z,26.15
2023-01-08T05:57:24.167Z,25.35
2023-01-08T05:59:51.067Z,24.80
2023-01-08T06:02:17.962Z,24.33
2023-01-08T06:04:45.151Z,23.67
2023-01-08T06:07:12.074Z,25.02
2023-01-08T06:09:39.213Z,25.35
2023-01-08T06:12:06.453Z,25.58
2023-01-08T06:14:35.008Z,23.25
2023-01-08T06:17:02.093Z,23.45
2023-01-08T06:19:29.152Z,25.30
2023-01-08T06:21:56.860Z,24.20
2023-01-08T06:24:25.164Z,26.33
2023-01-08T06:26:52.149Z,25.98
2023-01-08T06:29:19.125Z,25.67
2023-01-08T06:31:46.049Z,26.55
2023-01-08T06:34:13.245Z,26.58
2023-01-08T06:36:40.128Z,26.58
2023-01-08T06:39:08.051Z,27.48
2023-01-08T06:41:35.003Z,28.65
2023-01-08T06:44:01.928Z,28.75
2023-01-08T06:46:28.873Z,30.67
2023-01-08T06:48:55.904Z,30.15
2023-01-08T06:51:22.951Z,30.50
2023-01-08T06:53:50.602Z,32.05
2023-01-08T06:56:17.977Z,32.53
2023-01-08T06:58:44.925Z,30.85
2023-01-08T07:01:16.719Z,32.30
2023-01-08T07:03:44.726Z,31.80
2023-01-08T07:06:17.166Z,32.25
2023-01-08T07:08:45.074Z,31.98
2023-01-08T07:11:12.736Z,31.30
2023-01-08T07:13:40.348Z,31.88
2023-01-08T07:16:09.395Z,31.00
2023-01-08T07:18:36.964Z,30.88
2023-01-08T07:21:04.663Z,31.55
2023-01-08T07:23:32.177Z,30.95
2023-01-08T07:26:03.544Z,35.22
2023-01-08T07:28:31.152Z,34.95
2023-01-08T07:30:58.193Z,34.35
2023-01-08T07:33:25.211Z,33.88
2023-01-08T07:35:56.130Z,35.90
2023-01-08T07:38:23.639Z,35.33
2023-01-08T07:40:50.841Z,35.05
2023-01-08T07:43:17.701Z,35.92
2023-01-08T07:45:44.765Z,36.35
2023-01-08T07:48:15.747Z,36.17
2023-01-08T07:50:44.296Z,36.20
2023-01-08T07:53:13.105Z,36.80
2023-01-08T07:55:40.138Z,35.05
2023-01-08T07:58:11.935Z,34.75
2023-01-08T08:00:39.368Z,37.00
2023-01-08T08:03:08.315Z,36.05
2023-01-08T08:05:35.722Z,37.90
2023-01-08T08:08:08.388Z,37.75
2023-01-08T08:10:36.024Z,39.10
2023-01-08T08:13:03.161Z,40.33
2023-01-08T08:15:33.477Z,37.20
2023-01-08T08:18:00.439Z,41.65
2023-01-08T08:20:27.551Z,40.20
2023-01-08T08:23:05.043Z,41.85
2023-01-08T08:25:32.586Z,39.03
2023-01-08T08:28:01.429Z,42.63
2023-01-08T08:30:29.527Z,42.10
2023-01-08T08:33:00.837Z,45.70
2023-01-08T08:35:28.656Z,40.70
2023-01-08T08:37:57.001Z,43.10
2023-01-08T08:40:24.816Z,44.33
2023-01-08T08:43:03.374Z,43.75
2023-01-08T08:45:30.785Z,45.17
2023-01-08T08:47:57.638Z,43.28
2023-01-08T08:50:25.052Z,41.83
2023-01-08T08:52:51.917Z,39.78
2023-01-08T08:55:19.479Z,38.05
2023-01-08T08:57:47.816Z,41.03
2023-01-08T09:00:15.607Z,40.35
2023-01-08T09:02:42.890Z,42.83
2023-01-08T09:05:10.477Z,41.97
2023-01-08T09:07:38.010Z,41.65
2023-01-08T09:10:08.768Z,41.97
2023-01-08T09:12:35.841Z,42.22
2023-01-08T09:15:02.704Z,37.85
2023-01-08T09:17:30.212Z,34.30
2023-01-08T09:19:57.068Z,32.60
2023-01-08T09:22:24.724Z,33.20
2023-01-08T09:24:51.710Z,31.10
2023-01-08T09:27:18.741Z,31.67
2023-01-08T09:29:45.676Z,34.13
2023-01-08T09:32:12.729Z,34.75
2023-01-08T09:34:39.592Z,32.17
2023-01-08T09:37:08.194Z,32.53
2023-01-08T09:39:36.282Z,32.08
2023-01-08T09:42:05.833Z,33.43
2023-01-08T09:44:45.806Z,30.60
2023-01-08T09:47:31.410Z,29.92
2023-01-08T09:50:07.036Z,29.58
2023-01-08T09:52:34.214Z,29.63
2023-01-08T09:55:01.533Z,30.27
2023-01-08T09:59:58.601Z,27.65
2023-01-08T10:02:26.697Z,24.83
2023-01-08T10:04:56.653Z,25.48
2023-01-08T10:07:26.210Z,24.52
2023-01-08T10:09:54.392Z,23.83
2023-01-08T10:12:30.872Z,25.88
2023-01-08T10:15:04.909Z,28.88
2023-01-08T10:17:38.628Z,25.20
2023-01-08T10:20:12.892Z,29.73
2023-01-08T10:22:40.740Z,24.95
2023-01-08T10:25:12.928Z,22.73
2023-01-08T10:28:06.185Z,26.00
2023-01-08T10:30:33.053Z,25.90
2023-01-08T10:33:10.424Z,24.80
2023-01-08T10:35:42.745Z,24.80
2023-01-08T10:38:27.106Z,25.40
2023-01-08T10:40:55.645Z,23.90
2023-01-08T10:43:31.357Z,27.25
2023-01-08T10:46:04.653Z,26.80
2023-01-08T10:48:49.738Z,28.20
2023-01-08T10:51:24.045Z,26.95
2023-01-08T10:54:15.493Z,27.65
2023-01-08T10:56:45.887Z,27.02
2023-01-08T10:59:23.645Z,28.13
2023-01-08T11:01:53.176Z,27.23
2023-01-08T11:04:29.641Z,30.00
2023-01-08T11:06:59.926Z,27.38
2023-01-08T11:09:31.071Z,26.70
2023-01-08T11:11:58.680Z,27.40
2023-01-08T11:14:30.159Z,27.33
2023-01-08T11:16:58.567Z,28.83
2023-01-08T11:19:30.301Z,27.15
2023-01-08T11:22:03.565Z,25.40
2023-01-08T11:24:38.039Z,25.33
2023-01-08T11:27:04.964Z,26.58
2023-01-08T11:29:55.561Z,29.65
2023-01-08T11:32:31.204Z,28.33
2023-01-08T11:35:19.403Z,27.52
2023-01-08T11:37:54.605Z,28.25
2023-01-08T11:40:29.579Z,25.98
2023-01-08T11:43:22.888Z,27.73
2023-01-08T11:45:58.812Z,27.80
2023-01-08T11:49:07.690Z,28.15
2023-01-08T11:52:02.427Z,28.58
2023-01-08T11:55:00.534Z,28.63
2023-01-08T11:57:39.536Z,27.02
2023-01-08T12:00:24.449Z,27.10
2023-01-08T12:02:56.259Z,27.10
2023-01-08T12:05:43.611Z,25.95
2023-01-08T12:08:38.623Z,25.95
2023-01-08T12:11:16.623Z,25.55
2023-01-08T12:13:50.939Z,26.10
2023-01-08T12:16:29.966Z,26.27
2023-01-08T12:18:59.833Z,26.42
2023-01-08T12:21:38.337Z,27.40
2023-01-08T12:24:40.945Z,26.55
2023-01-08T12:27:48.439Z,21.63
2023-01-08T12:30:40.236Z,22.65
2023-01-08T12:33:17.847Z,22.13
2023-01-08T12:35:54.697Z,21.02
2023-01-08T12:38:25.064Z,23.55
2023-01-08T12:40:58.661Z,22.70
2023-01-08T12:43:38.451Z,22.42
2023-01-08T12:46:06.425Z,22.88
2023-01-08T12:48:38.035Z,23.73
2023-01-08T12:51:06.916Z,23.70
2023-01-08T12:53:49.130Z,26.70
2023-01-08T12:56:22.067Z,22.67
2023-01-08T12:59:03.690Z,22.42
2023-01-08T13:02:05.047Z,22.33
2023-01-08T13:04:48.322Z,23.27
2023-01-08T13:07:26.552Z,24.00
2023-01-08T13:10:01.910Z,23.80
2023-01-08T13:12:39.717Z,21.98
2023-01-08T13:15:11.100Z,23.52
2023-01-08T13:17:51.362Z,21.90
2023-01-08T13:25:17.398Z,21.63
2023-01-08T13:27:46.282Z,22.08
2023-01-08T13:30:42.212Z,22.60
2023-01-08T13:33:39.720Z,22.00
2023-01-08T13:36:12.597Z,21.45
2023-01-08T13:38:43.876Z,23.27
2023-01-08T13:41:29.781Z,21.40
2023-01-08T13:44:06.315Z,22.75
2023-01-08T13:46:37.980Z,23.33
2023-01-08T13:49:17.159Z,20.67
2023-01-08T13:51:56.318Z,22.45
2023-01-08T13:54:38.160Z,20.95
2023-01-08T13:57:13.044Z,19.98
2023-01-08T13:59:44.191Z,20.33
2023-01-08T14:02:55.738Z,19.60
2023-01-08T14:05:29.677Z,19.08
2023-01-08T14:07:59.136Z,19.88
2023-01-08T14:10:29.012Z,18.98
2023-01-08T14:13:17.830Z,19.48
2023-01-08T14:15:45.106Z,19.58
2023-01-08T14:18:13.928Z,19.55
2023-01-08T14:20:44.870Z,17.60
2023-01-08T14:23:18.744Z,18.85
2023-01-08T14:25:51.611Z,18.92
2023-01-08T14:28:22.439Z,17.40
2023-01-08T14:31:00.128Z,17.95
2023-01-08T14:33:33.213Z,17.17
2023-01-08T14:36:01.785Z,17.08
2023-01-08T14:38:28.687Z,17.20
2023-01-08T14:41:14.709Z,19.00
2023-01-08T14:43:45.163Z,17.65
2023-01-08T14:46:24.495Z,18.17
2023-01-08T14:48:55.942Z,18.90
2023-01-08T14:51:30.154Z,19.38
2023-01-08T14:54:06.146Z,17.95
2023-01-08T14:56:36.104Z,19.73
2023-01-08T14:59:12.599Z,19.25
2023-01-08T15:01:40.049Z,18.95
2023-01-08T15:04:18.522Z,19.83
2023-01-08T15:06:46.081Z,18.30
2023-01-08T15:09:30.204Z,19.35
2023-01-08T15:12:02.289Z,19.30
2023-01-08T15:14:31.156Z,21.45
2023-01-08T15:17:05.147Z,22.90
2023-01-08T15:19:38.575Z,21.45
2023-01-08T15:22:05.486Z,22.33
2023-01-08T15:24:39.899Z,22.65
2023-01-08T15:27:10.809Z,22.42
2023-01-08T15:29:40.997Z,25.70
2023-01-08T15:32:14.157Z,25.48
2023-01-08T15:34:45.209Z,27.80
2023-01-08T15:37:14.358Z,28.08
2023-01-08T15:39:42.865Z,29.90
2023-01-08T15:42:46.298Z,30.23
2023-01-08T15:45:17.539Z,31.50
2023-01-08T15:47:44.812Z,30.48
2023-01-08T15:50:14.932Z,28.57
2023-01-08T15:52:43.566Z,29.15
2023-01-08T15:55:17.908Z,28.02
2023-01-08T15:57:45.243Z,29.73
2023-01-08T16:00:14.342Z,30.75
2023-01-08T16:02:52.713Z,31.58
2023-01-08T16:05:21.856Z,31.63
2023-01-08T16:07:49.095Z,30.73
2023-01-08T16:10:17.179Z,32.83
2023-01-08T16:12:44.667Z,33.00
2023-01-08T16:15:13.382Z,34.78
2023-01-08T16:17:41.201Z,34.22
2023-01-08T16:20:09.885Z,32.75
2023-01-08T16:22:36.722Z,35.67
2023-01-08T16:25:04.412Z,33.22
2023-01-08T16:27:32.360Z,30.13
2023-01-08T16:29:59.924Z,31.55
2023-01-08T16:32:26.880Z,31.77
2023-01-08T16:34:55.001Z,29.23
2023-01-08T16:37:22.510Z,31.02
2023-01-08T16:39:49.688Z,32.13
2023-01-08T16:42:16.918Z,31.27
2023-01-08T16:44:43.813Z,32.45
2023-01-08T16:47:10.923Z,31.13
2023-01-08T16:49:37.763Z,30.70
2023-01-08T16:52:09.613Z,31.00
2023-01-08T16:54:37.085Z,31.65
2023-01-08T16:57:05.244Z,29.95
2023-01-08T16:59:33.429Z,32.05
2023-01-08T17:02:00.564Z,30.58
2023-01-08T17:04:29.738Z,31.83
2023-01-08T17:06:57.289Z,29.95
2023-01-08T17:09:25.610Z,27.77
2023-01-08T17:11:52.824Z,28.10
2023-01-08T17:14:20.296Z,28.00
2023-01-08T17:16:49.082Z,29.20
2023-01-08T17:19:17.620Z,29.15
2023-01-08T17:21:46.088Z,27.77
2023-01-08T17:24:13.635Z,27.42
2023-01-08T17:26:40.576Z,26.52
2023-01-08T17:29:08.333Z,26.40
2023-01-08T17:31:40.320Z,28.80
2023-01-08T17:34:11.841Z,28.70
2023-01-08T17:36:39.156Z,27.63
2023-01-08T17:39:11.602Z,29.23
2023-01-08T17:41:57.753Z,27.50
2023-01-08T17:44:26.662Z,27.75
2023-01-08T17:46:53.659Z,29.63
2023-01-08T17:49:21.795Z,30.17
2023-01-08T17:51:48.814Z,31.30
2023-01-08T17:54:17.490Z,30.92
2023-01-08T17:56:44.624Z,30.13
2023-01-08T17:59:17.214Z,29.58
2023-01-08T18:01:45.720Z,31.50
2023-01-08T18:04:16.002Z,32.97
2023-01-08T18:06:43.716Z,33.80
2023-01-08T18:09:12.614Z,34.78
2023-01-08T18:11:43.879Z,34.53
2023-01-08T18:14:14.756Z,40.83
2023-01-08T18:16:45.491Z,37.45
2023-01-08T18:19:14.096Z,36.47
2023-01-08T18:21:47.936Z,38.33
2023-01-08T18:24:17.739Z,44.67
2023-01-08T18:29:16.443Z,37.38
2023-01-08T18:31:46.588Z,39.72
2023-01-08T18:34:15.419Z,45.85
2023-01-08T18:36:42.745Z,39.53
2023-01-08T18:39:11.878Z,41.10
2023-01-08T18:41:57.882Z,37.85
2023-01-08T18:44:26.915Z,35.47
2023-01-08T18:46:54.146Z,37.17
2023-01-08T18:49:21.468Z,35.30
2023-01-08T18:51:48.280Z,31.65
2023-01-08T18:54:15.668Z,32.10
2023-01-08T18:56:42.734Z,28.10
2023-01-08T18:59:10.650Z,26.63
2023-01-08T19:01:39.065Z,24.50
2023-01-08T19:04:06.101Z,23.42
2023-01-08T19:06:33.490Z,21.85
2023-01-08T19:09:00.560Z,19.55
2023-01-08T19:11:27.964Z,20.35
2023-01-08T19:13:56.451Z,20.83
2023-01-08T19:16:23.817Z,18.02
2023-01-08T19:18:51.091Z,18.80
2023-01-08T19:21:19.486Z,18.30
2023-01-08T19:23:47.803Z,18.50
2023-01-08T19:26:15.752Z,18.58
2023-01-08T19:28:43.240Z,19.25
2023-01-08T19:31:16.308Z,21.85
2023-01-08T19:33:46.033Z,23.95
2023-01-08T19:36:16.089Z,21.90
2023-01-08T19:38:43.778Z,19.70
2023-01-08T19:41:30.304Z,18.75
2023-01-08T19:43:57.872Z,16.45
2023-01-08T19:46:25.001Z,18.17
2023-01-08T19:48:53.129Z,16.13
2023-01-08T19:51:20.106Z,16.95
2023-01-08T19:53:47.117Z,21.13
2023-01-08T19:56:15.023Z,27.23
2023-01-08T19:58:42.843Z,27.27
2023-01-08T20:01:15.392Z,27.85
2023-01-08T20:03:43.510Z,29.20
2023-01-08T20:06:16.347Z,25.40
2023-01-08T20:08:46.257Z,24.23
2023-01-08T20:11:14.983Z,20.52
2023-01-08T20:13:44.250Z,21.88
2023-01-08T20:16:13.830Z,20.83
2023-01-08T20:18:41.524Z,19.38
2023-01-08T20:21:18.505Z,18.55
2023-01-08T20:23:45.494Z,18.17
2023-01-08T20:26:17.822Z,19.73
2023-01-08T20:28:46.148Z,18.30
2023-01-08T20:31:18.931Z,19.40
2023-01-08T20:33:46.289Z,19.48
2023-01-08T20:36:18.704Z,18.92
2023-01-08T20:38:46.574Z,18.85
2023-01-08T20:41:13.544Z,20.02
2023-01-08T20:43:40.959Z,19.67
2023-01-08T20:46:14.082Z,19.70
2023-01-08T20:48:47.845Z,20.77
2023-01-08T20:51:16.643Z,19.63
2023-01-08T20:53:43.569Z,21.35
2023-01-08T20:56:12.711Z,18.23
2023-01-08T20:58:45.994Z,19.08
2023-01-08T21:01:19.537Z,19.55
2023-01-08T21:03:48.562Z,22.90
2023-01-08T21:06:18.269Z,34.90
2023-01-08T21:08:47.005Z,35.25
2023-01-08T21:11:14.805Z,26.35
2023-01-08T21:13:42.410Z,26.77
2023-01-08T21:16:13.691Z,22.23
2023-01-08T21:18:47.446Z,23.85
2023-01-08T21:21:24.018Z,25.88
2023-01-08T21:23:51.538Z,27.23
2023-01-08T21:26:19.240Z,25.88
2023-01-08T21:28:46.960Z,28.92
2023-01-08T21:31:17.215Z,29.58
2023-01-08T21:33:48.473Z,31.35
2023-01-08T21:36:19.473Z,27.67
2023-01-08T21:38:46.749Z,28.42
2023-01-08T21:41:38.326Z,29.00
2023-01-08T21:44:29.013Z,29.40
2023-01-08T21:46:58.360Z,29.58
2023-01-08T21:49:25.429Z,31.10
2023-01-08T21:52:11.151Z,30.15
2023-01-08T21:54:41.253Z,29.70
2023-01-08T21:57:09.307Z,32.35
2023-01-08T21:59:36.810Z,34.33
2023-01-08T22:02:05.352Z,36.58
2023-01-08T22:04:32.747Z,36.05
2023-01-08T22:06:59.689Z,34.17
2023-01-08T22:09:26.579Z,35.30
2023-01-08T22:11:56.005Z,37.45
2023-01-08T22:14:23.296Z,33.35
2023-01-08T22:16:50.340Z,36.55
2023-01-08T22:19:17.618Z,35.50
2023-01-08T22:21:45.039Z,37.78
2023-01-08T22:24:12.216Z,38.83
2023-01-08T22:26:39.311Z,40.88
2023-01-08T22:29:06.616Z,45.08
2023-01-08T22:31:34.023Z,45.63
2023-01-08T22:34:01.260Z,48.15
2023-01-08T22:36:28.284Z,47.97
2023-01-08T22:38:55.337Z,49.35
2023-01-08T22:41:24.635Z,51.95
2023-01-08T22:46:25.751Z,50.45
2023-01-08T22:48:52.984Z,54.90
2023-01-08T22:51:29.613Z,54.97
2023-01-08T22:53:58.412Z,56.75
2023-01-08T22:56:26.585Z,60.15
2023-01-08T22:58:54.522Z,58.65
2023-01-08T23:01:24.688Z,59.60
2023-01-08T23:03:53.535Z,57.92
2023-01-08T23:06:25.629Z,57.97
2023-01-08T23:08:52.708Z,58.45
2023-01-08T23:11:21.042Z,56.55
2023-01-08T23:13:48.647Z,56.17
2023-01-08T23:16:17.988Z,58.88
2023-01-08T23:21:17.498Z,48.88
2023-01-08T23:23:45.152Z,52.60
2023-01-08T23:26:23.022Z,53.15
2023-01-08T23:28:50.898Z,51.55
2023-01-08T23:31:22.368Z,52.72
2023-01-08T23:54:33.314Z,56.70
2023-01-08T23:57:00.372Z,50.58
2023-01-08T23:59:27.572Z,46.75
